createdAt,value
2022-08-01T00:01:48.919Z,12.30
2022-08-01T00:04:17.722Z,12.30
2022-08-01T00:06:46.318Z,12.20
2022-08-01T00:09:23.856Z,12.10
2022-08-01T00:11:56.247Z,12.00
2022-08-01T00:14:32.595Z,11.90
2022-08-01T00:17:07.009Z,11.90
2022-08-01T00:19:36.789Z,11.90
2022-08-01T00:22:06.625Z,11.90
2022-08-01T00:24:37.781Z,11.90
2022-08-01T00:27:07.149Z,11.90
2022-08-01T00:30:10.427Z,11.90
2022-08-01T00:32:24.773Z,11.90
2022-08-01T00:34:53.781Z,11.80
2022-08-01T00:37:22.468Z,11.70
2022-08-01T00:39:52.476Z,11.70
2022-08-01T00:42:21.341Z,11.70
2022-08-01T00:44:50.095Z,11.70
2022-08-01T00:47:19.064Z,11.70
2022-08-01T00:49:47.743Z,11.60
2022-08-01T00:52:16.516Z,11.60
2022-08-01T00:54:45.896Z,11.70
2022-08-01T00:57:16.131Z,11.80
2022-08-01T00:59:56.848Z,11.60
2022-08-01T01:02:27.805Z,11.60
2022-08-01T01:04:56.399Z,11.70
2022-08-01T01:07:34.729Z,11.60
2022-08-01T01:10:06.939Z,11.50
2022-08-01T01:12:48.229Z,11.50
2022-08-01T01:15:24.619Z,11.50
2022-08-01T01:17:59.679Z,11.40
2022-08-01T01:20:38.239Z,11.40
2022-08-01T01:23:33.251Z,11.30
2022-08-01T01:26:25.779Z,11.40
2022-08-01T01:29:11.272Z,11.40
2022-08-01T01:31:45.998Z,11.40
2022-08-01T01:34:17.550Z,11.40
2022-08-01T01:36:48.082Z,11.50
2022-08-01T01:39:18.563Z,11.50
2022-08-01T01:41:48.835Z,11.40
2022-08-01T01:44:20.666Z,11.30
2022-08-01T01:46:50.970Z,11.20
2022-08-01T01:49:23.933Z,11.20
2022-08-01T01:52:03.202Z,11.30
2022-08-01T01:54:35.261Z,11.30
2022-08-01T01:57:05.695Z,11.40
2022-08-01T01:59:38.647Z,11.50
2022-08-01T02:02:09.930Z,11.50
2022-08-01T02:04:43.680Z,11.50
2022-08-01T02:07:14.645Z,11.50
2022-08-01T02:09:45.341Z,11.60
2022-08-01T02:12:16.321Z,11.60
2022-08-01T02:14:48.352Z,11.60
2022-08-01T02:17:20.970Z,11.60
2022-08-01T02:19:50.146Z,11.60
2022-08-01T02:22:22.631Z,11.60
2022-08-01T02:24:56.006Z,11.60
2022-08-01T02:27:30.899Z,11.60
2022-08-01T02:30:06.145Z,11.60
2022-08-01T02:32:39.899Z,11.60
2022-08-01T02:35:12.614Z,11.60
2022-08-01T02:37:45.140Z,11.60
2022-08-01T02:40:18.400Z,11.70
2022-08-01T02:42:51.847Z,11.70
2022-08-01T02:45:26.766Z,11.70
2022-08-01T02:48:01.470Z,11.70
2022-08-01T02:50:32.022Z,11.70
2022-08-01T02:53:01.263Z,11.60
2022-08-01T02:55:31.551Z,11.60
2022-08-01T02:58:02.493Z,11.50
2022-08-01T03:00:33.114Z,11.60
2022-08-01T03:03:03.030Z,11.60
2022-08-01T03:05:33.941Z,11.70
2022-08-01T03:08:04.249Z,11.70
2022-08-01T03:10:45.577Z,11.70
2022-08-01T03:13:15.469Z,11.80
2022-08-01T03:15:46.866Z,11.80
2022-08-01T03:18:18.547Z,11.90
2022-08-01T03:20:48.130Z,11.90
2022-08-01T03:23:17.749Z,12.00
2022-08-01T03:25:47.682Z,12.00
2022-08-01T03:28:18.408Z,12.10
2022-08-01T03:30:51.005Z,12.10
2022-08-01T03:33:19.861Z,12.20
2022-08-01T03:35:51.041Z,12.20
2022-08-01T03:38:24.860Z,12.30
2022-08-01T03:40:58.056Z,12.30
2022-08-01T03:43:34.300Z,12.40
2022-08-01T03:46:10.325Z,12.50
2022-08-01T03:48:45.462Z,12.50
2022-08-01T03:51:16.553Z,12.60
2022-08-01T03:53:48.281Z,12.70
2022-08-01T03:56:22.024Z,12.80
2022-08-01T03:58:52.181Z,12.90
2022-08-01T04:01:23.075Z,13.00
2022-08-01T04:03:52.753Z,13.00
2022-08-01T04:06:21.996Z,13.10
2022-08-01T04:08:58.905Z,13.20
2022-08-01T04:11:28.521Z,13.30
2022-08-01T04:14:03.156Z,13.40
2022-08-01T04:16:40.839Z,13.40
2022-08-01T04:19:10.257Z,13.60
2022-08-01T04:21:39.828Z,13.60
2022-08-01T04:24:15.124Z,14.20
2022-08-01T04:26:47.055Z,13.80
2022-08-01T04:29:19.310Z,13.80
2022-08-01T04:31:52.060Z,13.90
2022-08-01T04:34:24.735Z,13.90
2022-08-01T04:36:57.448Z,14.00
2022-08-01T04:39:30.046Z,14.10
2022-08-01T04:42:04.098Z,14.10
2022-08-01T04:44:34.464Z,14.20
2022-08-01T04:47:09.155Z,14.20
2022-08-01T04:49:49.024Z,14.20
2022-08-01T04:52:24.400Z,14.20
2022-08-01T04:54:54.419Z,14.30
2022-08-01T04:57:23.323Z,14.30
2022-08-01T05:00:00.869Z,14.40
2022-08-01T05:02:32.527Z,14.40
2022-08-01T05:05:01.820Z,14.40
2022-08-01T05:07:31.620Z,14.50
2022-08-01T05:10:14.870Z,14.50
2022-08-01T05:12:43.811Z,14.50
2022-08-01T05:15:15.625Z,14.60
2022-08-01T05:17:49.548Z,14.60
2022-08-01T05:20:18.986Z,14.60
2022-08-01T05:22:48.813Z,14.60
2022-08-01T05:25:20.423Z,14.70
2022-08-01T05:28:07.548Z,14.70
2022-08-01T05:30:38.636Z,14.80
2022-08-01T05:33:10.198Z,14.70
2022-08-01T05:35:48.234Z,14.80
2022-08-01T05:38:19.282Z,14.90
2022-08-01T05:40:48.711Z,15.00
2022-08-01T05:43:18.725Z,15.10
2022-08-01T05:45:48.912Z,15.20
2022-08-01T05:48:19.721Z,15.30
2022-08-01T05:50:49.286Z,15.30
2022-08-01T05:53:19.353Z,15.40
2022-08-01T05:55:49.568Z,15.50
2022-08-01T05:58:19.294Z,15.50
2022-08-01T06:00:48.565Z,15.60
2022-08-01T06:03:19.523Z,15.60
2022-08-01T06:05:49.893Z,15.60
2022-08-01T06:08:18.857Z,15.70
2022-08-01T06:10:47.829Z,15.70
2022-08-01T06:13:16.849Z,15.80
2022-08-01T06:15:46.226Z,15.80
2022-08-01T06:18:15.541Z,15.90
2022-08-01T06:20:47.264Z,16.00
2022-08-01T06:23:32.760Z,16.20
2022-08-01T06:26:02.189Z,16.30
2022-08-01T06:28:31.488Z,16.50
2022-08-01T06:31:01.713Z,16.70
2022-08-01T06:33:31.491Z,16.70
2022-08-01T06:36:03.280Z,16.80
2022-08-01T06:38:32.780Z,17.00
2022-08-01T06:41:01.660Z,17.10
2022-08-01T06:43:30.779Z,17.30
2022-08-01T06:46:00.405Z,17.50
2022-08-01T06:48:29.577Z,17.70
2022-08-01T06:51:10.349Z,17.80
2022-08-01T06:53:41.312Z,17.90
2022-08-01T06:56:14.562Z,18.00
2022-08-01T06:58:44.544Z,18.10
2022-08-01T07:01:13.617Z,18.10
2022-08-01T07:03:53.240Z,18.20
2022-08-01T07:06:25.506Z,18.30
2022-08-01T07:08:56.511Z,18.60
2022-08-01T07:11:27.473Z,18.70
2022-08-01T07:13:57.150Z,18.90
2022-08-01T07:16:26.534Z,19.10
2022-08-01T07:18:56.103Z,19.50
2022-08-01T14:46:21.118Z,35.70
2022-08-01T14:48:50.108Z,35.20
2022-08-01T14:51:18.931Z,34.40
2022-08-01T14:53:50.895Z,34.90
2022-08-01T14:56:22.412Z,35.10
2022-08-01T14:58:51.382Z,33.70
2022-08-01T15:01:21.877Z,33.60
2022-08-01T15:03:51.880Z,34.40
2022-08-01T15:06:20.710Z,35.20
2022-08-01T15:08:49.359Z,34.70
2022-08-01T15:11:18.220Z,34.50
2022-08-01T15:13:46.888Z,32.50
2022-08-01T15:16:15.792Z,31.60
2022-08-01T15:18:45.944Z,30.90
2022-08-01T15:21:34.472Z,30.70
2022-08-01T15:24:03.729Z,30.00
2022-08-01T15:26:32.425Z,29.50
2022-08-01T15:29:01.276Z,29.60
2022-08-01T15:31:29.995Z,29.10
2022-08-01T15:34:01.801Z,28.80
2022-08-01T15:36:30.768Z,28.40
2022-08-01T15:39:00.757Z,28.10
2022-08-01T15:41:29.701Z,27.90
2022-08-01T15:43:58.919Z,28.00
2022-08-01T15:46:27.740Z,28.00
2022-08-01T15:48:56.549Z,27.90
2022-08-01T15:51:26.779Z,28.20
2022-08-01T15:53:55.487Z,28.50
2022-08-01T15:56:25.074Z,28.30
2022-08-01T15:58:54.005Z,28.10
2022-08-01T16:01:22.886Z,27.80
2022-08-01T16:03:51.619Z,27.90
2022-08-01T16:06:22.924Z,27.70
2022-08-01T16:08:53.643Z,27.40
2022-08-01T16:11:24.111Z,27.30
2022-08-01T16:13:52.872Z,26.80
2022-08-01T16:16:21.601Z,26.40
2022-08-01T16:18:53.597Z,26.10
2022-08-01T16:21:24.142Z,25.90
2022-08-01T16:23:54.450Z,25.70
2022-08-01T16:26:27.685Z,25.40
2022-08-01T16:28:58.268Z,25.30
2022-08-01T16:31:40.886Z,25.40
2022-08-01T16:34:16.298Z,25.50
2022-08-01T16:36:45.095Z,25.40
2022-08-01T16:39:19.552Z,25.10
2022-08-01T16:41:55.212Z,24.80
2022-08-01T16:44:33.293Z,24.60
2022-08-01T16:47:04.212Z,24.20
2022-08-01T16:49:33.752Z,24.10
2022-08-01T16:52:02.787Z,23.80
2022-08-01T16:54:33.303Z,23.80
2022-08-01T16:57:08.367Z,23.50
2022-08-01T16:59:41.421Z,23.40
2022-08-01T17:02:13.896Z,23.40
2022-08-01T17:04:45.191Z,23.30
2022-08-01T17:07:13.973Z,23.00
2022-08-01T17:09:44.155Z,23.20
2022-08-01T17:12:14.349Z,23.10
2022-08-01T17:14:51.843Z,23.20
2022-08-01T17:17:21.436Z,23.10
2022-08-01T17:19:50.333Z,22.90
2022-08-01T17:22:19.288Z,22.70
2022-08-01T17:24:51.267Z,22.70
2022-08-01T17:27:20.424Z,22.60
2022-08-01T17:29:49.324Z,22.50
2022-08-01T17:32:18.275Z,22.40
2022-08-01T17:34:46.962Z,22.50
2022-08-01T17:37:15.689Z,22.30
2022-08-01T17:39:44.432Z,22.20
2022-08-01T17:42:14.989Z,22.10
2022-08-01T17:44:48.719Z,22.10
2022-08-01T17:47:40.893Z,22.10
2022-08-01T17:50:09.685Z,22.10
2022-08-01T17:52:39.116Z,21.90
2022-08-01T17:55:55.929Z,21.90
2022-08-01T17:57:59.714Z,21.80
2022-08-01T18:00:28.739Z,21.70
2022-08-01T18:02:57.720Z,21.60
2022-08-01T18:05:36.945Z,21.60
2022-08-01T18:08:08.841Z,21.50
2022-08-01T18:10:39.974Z,21.30
2022-08-01T18:13:10.680Z,21.30
2022-08-01T18:15:40.002Z,21.40
2022-08-01T18:18:08.732Z,21.30
2022-08-01T18:20:37.427Z,21.30
2022-08-01T18:23:08.915Z,21.20
2022-08-01T18:25:37.743Z,21.20
2022-08-01T18:28:16.433Z,21.10
2022-08-01T18:30:57.483Z,21.10
2022-08-01T18:33:26.275Z,21.00
2022-08-01T18:36:01.902Z,21.00
2022-08-01T18:38:33.582Z,20.90
2022-08-01T18:41:05.488Z,20.90
2022-08-01T18:43:34.347Z,20.80
2022-08-01T18:46:06.470Z,20.60
2022-08-01T18:48:35.823Z,20.50
2022-08-01T18:51:04.789Z,20.50
2022-08-01T18:53:37.568Z,20.40
2022-08-01T18:56:11.981Z,20.30
2022-08-01T18:58:41.858Z,20.30
2022-08-01T19:01:13.731Z,20.20
2022-08-01T19:03:42.953Z,20.30
2022-08-01T19:06:11.830Z,20.20
2022-08-01T19:08:40.999Z,20.10
2022-08-01T19:11:10.003Z,20.00
2022-08-01T19:13:39.294Z,19.90
2022-08-01T19:16:08.462Z,19.90
2022-08-01T19:18:40.374Z,19.80
2022-08-01T19:21:09.527Z,19.70
2022-08-01T19:23:55.969Z,19.60
2022-08-01T19:26:27.427Z,19.70
2022-08-01T19:28:59.317Z,19.80
2022-08-01T19:31:29.645Z,19.70
2022-08-01T19:34:00.246Z,19.60
2022-08-01T19:36:29.230Z,19.60
2022-08-01T19:38:58.063Z,19.50
2022-08-01T19:41:26.990Z,19.30
2022-08-01T19:43:56.845Z,19.40
2022-08-01T19:46:26.212Z,19.50
2022-08-01T19:48:55.475Z,19.40
2022-08-01T19:51:33.010Z,19.30
2022-08-01T19:54:07.077Z,19.30
2022-08-01T19:56:40.945Z,19.30
2022-08-01T19:59:10.984Z,19.40
2022-08-01T20:01:40.702Z,19.40
2022-08-01T20:04:11.387Z,19.40
2022-08-01T20:06:41.974Z,19.50
2022-08-01T20:09:10.921Z,19.70
2022-08-01T20:11:40.534Z,19.60
2022-08-01T20:14:09.772Z,19.60
2022-08-01T20:16:38.845Z,19.60
2022-08-01T20:19:08.169Z,19.60
2022-08-01T20:21:37.732Z,19.60
2022-08-01T20:24:11.749Z,19.60
2022-08-01T20:26:43.098Z,19.70
2022-08-01T20:29:14.077Z,19.60
2022-08-01T20:31:47.345Z,19.70
2022-08-01T20:34:19.633Z,19.70
2022-08-01T20:36:56.621Z,19.80
2022-08-01T20:39:28.749Z,19.90
2022-08-01T20:42:00.038Z,19.90
2022-08-01T20:44:32.740Z,19.90
2022-08-01T20:47:05.358Z,19.90
2022-08-01T20:49:35.531Z,19.80
2022-08-01T20:52:11.909Z,19.90
2022-08-01T20:54:43.212Z,19.80
2022-08-01T20:57:21.697Z,19.80
2022-08-01T20:59:57.474Z,19.80
2022-08-01T21:02:51.799Z,19.80
2022-08-01T21:05:29.671Z,19.80
2022-08-01T21:08:05.983Z,19.90
2022-08-01T21:10:41.673Z,19.90
2022-08-01T21:13:20.512Z,19.90
2022-08-01T21:15:59.893Z,19.80
2022-08-01T21:19:18.120Z,19.80
2022-08-01T21:21:46.904Z,19.80
2022-08-01T21:24:19.412Z,19.80
2022-08-01T21:26:51.122Z,19.80
2022-08-01T21:29:22.659Z,19.90
2022-08-01T21:32:11.791Z,19.90
2022-08-01T21:34:41.791Z,20.00
2022-08-01T21:37:11.263Z,19.90
2022-08-01T21:39:41.715Z,19.90
2022-08-01T21:42:18.272Z,19.80
2022-08-01T21:44:49.111Z,19.80
2022-08-01T21:47:18.167Z,19.70
2022-08-01T21:49:47.129Z,19.60
2022-08-01T21:52:21.651Z,19.50
2022-08-01T21:54:59.853Z,19.50
2022-08-01T21:57:45.499Z,19.50
2022-08-01T22:00:20.975Z,19.50
2022-08-01T22:03:02.242Z,19.50
2022-08-01T22:05:50.389Z,19.50
2022-08-01T22:08:26.271Z,19.40
2022-08-01T22:11:00.344Z,19.40
2022-08-01T22:13:30.800Z,19.40
2022-08-01T22:15:59.962Z,19.30
2022-08-01T22:18:29.530Z,19.40
2022-08-01T22:20:58.502Z,19.30
2022-08-01T22:23:27.870Z,19.40
2022-08-01T22:25:57.599Z,19.40
2022-08-01T22:28:27.041Z,19.40
2022-08-01T22:30:57.898Z,19.40
2022-08-01T22:33:27.873Z,19.30
2022-08-01T22:35:58.079Z,19.30
2022-08-01T22:38:27.676Z,19.20
2022-08-01T22:41:02.146Z,19.20
2022-08-01T22:43:36.827Z,19.20
2022-08-01T22:46:18.831Z,19.20
2022-08-01T22:48:53.075Z,19.20
2022-08-01T22:51:35.506Z,19.10
2022-08-01T22:54:07.509Z,19.10
2022-08-01T22:56:40.449Z,19.00
2022-08-01T22:59:16.301Z,18.90
2022-08-01T23:01:52.413Z,18.90
2022-08-01T23:04:33.520Z,18.90
2022-08-01T23:07:07.294Z,18.90
2022-08-01T23:09:39.228Z,18.90
2022-08-01T23:12:24.335Z,18.90
2022-08-01T23:14:56.439Z,18.90
2022-08-01T23:17:29.451Z,18.90
2022-08-01T23:20:00.360Z,18.90
2022-08-01T23:22:32.541Z,18.80
2022-08-01T23:25:07.874Z,18.90
2022-08-01T23:27:55.980Z,18.90
2022-08-01T23:30:31.294Z,18.90
2022-08-01T23:33:02.052Z,18.80
2022-08-01T23:35:31.849Z,18.80
2022-08-01T23:38:04.605Z,18.80
2022-08-01T23:40:34.285Z,18.80
2022-08-01T23:43:04.255Z,18.80
2022-08-01T23:46:02.355Z,18.80
2022-08-01T23:48:24.077Z,18.80
2022-08-01T23:50:54.232Z,18.80
2022-08-01T23:53:23.145Z,18.80
2022-08-01T23:55:52.191Z,18.80
2022-08-01T23:58:23.307Z,18.80
